createdAt,value
2023-04-15T00:00:59.494Z,81.60
2023-04-15T00:03:28.730Z,81.60
2023-04-15T00:05:57.543Z,81.60
2023-04-15T00:08:27.308Z,81.70
2023-04-15T00:10:55.542Z,82.40
2023-04-15T00:13:23.788Z,82.40
2023-04-15T00:15:52.247Z,81.60
2023-04-15T00:18:20.485Z,81.70
2023-04-15T00:20:48.774Z,81.60
2023-04-15T00:23:17.105Z,81.60
2023-04-15T00:25:46.988Z,81.60
2023-04-15T00:28:15.290Z,82.50
2023-04-15T00:30:44.124Z,81.60
2023-04-15T00:33:12.596Z,81.60
2023-04-15T00:35:40.919Z,81.60
2023-04-15T00:38:09.962Z,82.50
2023-04-15T00:40:38.835Z,81.70
2023-04-15T00:43:08.518Z,81.70
2023-04-15T00:45:37.357Z,81.70
2023-04-15T00:48:07.253Z,81.70
2023-04-15T00:50:35.580Z,81.70
2023-04-15T00:53:03.909Z,81.70
2023-04-15T00:55:33.362Z,81.60
2023-04-15T00:58:01.653Z,81.70
2023-04-15T01:00:31.856Z,82.60
2023-04-15T01:03:00.434Z,81.70
2023-04-15T01:05:29.557Z,82.50
2023-04-15T01:07:58.400Z,81.70
2023-04-15T01:10:27.401Z,81.80
2023-04-15T01:12:55.706Z,81.70
2023-04-15T01:15:24.996Z,81.70
2023-04-15T01:17:55.183Z,81.70
2023-04-15T01:20:23.519Z,81.70
2023-04-15T01:22:52.725Z,82.50
2023-04-15T01:25:28.510Z,81.70
2023-04-15T01:27:57.075Z,81.70
2023-04-15T01:30:25.805Z,81.70
2023-04-15T01:32:55.088Z,81.70
2023-04-15T01:35:44.148Z,81.70
2023-04-15T01:38:13.613Z,81.60
2023-04-15T01:40:43.178Z,81.60
2023-04-15T01:43:11.448Z,81.60
2023-04-15T01:45:39.731Z,82.50
2023-04-15T01:48:08.386Z,81.60
2023-04-15T01:50:39.819Z,81.70
2023-04-15T01:53:08.607Z,81.70
2023-04-15T01:55:37.152Z,81.70
2023-04-15T01:58:06.922Z,82.50
2023-04-15T02:00:35.477Z,82.50
2023-04-15T02:03:04.194Z,81.70
2023-04-15T02:05:32.499Z,81.60
2023-04-15T02:08:00.850Z,82.50
2023-04-15T02:10:29.088Z,81.70
2023-04-15T02:12:57.400Z,81.60
2023-04-15T02:15:30.699Z,81.60
2023-04-15T02:18:00.946Z,81.60
2023-04-15T02:20:30.712Z,81.60
2023-04-15T02:22:59.816Z,81.70
2023-04-15T02:25:28.086Z,81.60
2023-04-15T02:27:59.097Z,81.60
2023-04-15T02:30:27.355Z,80.90
2023-04-15T02:32:56.974Z,81.70
2023-04-15T02:35:26.903Z,81.60
2023-04-15T02:37:55.424Z,81.70
2023-04-15T02:40:24.228Z,82.40
2023-04-15T02:42:52.505Z,81.60
2023-04-15T02:45:24.133Z,81.60
2023-04-15T02:47:52.451Z,81.70
2023-04-15T02:50:23.649Z,81.70
2023-04-15T02:52:52.238Z,81.70
2023-04-15T02:55:20.642Z,81.60
2023-04-15T02:57:49.062Z,81.60
2023-04-15T03:00:17.631Z,81.60
2023-04-15T03:02:49.951Z,81.60
2023-04-15T03:05:18.372Z,81.60
2023-04-15T03:07:53.377Z,81.60
2023-04-15T03:10:22.405Z,81.70
2023-04-15T03:12:50.841Z,81.60
2023-04-15T03:15:21.324Z,81.60
2023-04-15T03:17:52.908Z,82.40
2023-04-15T03:20:21.493Z,81.60
2023-04-15T03:22:50.378Z,81.60
2023-04-15T03:25:21.749Z,81.70
2023-04-15T03:27:50.056Z,81.70
2023-04-15T03:30:19.079Z,81.70
2023-04-15T03:32:47.732Z,81.70
2023-04-15T03:35:16.476Z,81.70
2023-04-15T03:37:44.854Z,81.70
2023-04-15T03:40:13.921Z,82.50
2023-04-15T03:42:43.502Z,81.70
2023-04-15T03:45:12.597Z,81.80
2023-04-15T03:47:41.010Z,81.70
2023-04-15T03:50:09.813Z,81.70
2023-04-15T03:52:38.089Z,81.70
2023-04-15T03:55:06.794Z,81.80
2023-04-15T03:57:38.111Z,81.80
2023-04-15T04:00:10.089Z,81.70
2023-04-15T04:02:41.524Z,81.70
2023-04-15T04:05:10.594Z,81.70
2023-04-15T04:07:38.815Z,81.70
2023-04-15T04:10:08.486Z,81.70
2023-04-15T04:12:36.799Z,81.70
2023-04-15T04:15:05.651Z,81.70
2023-04-15T04:17:35.896Z,81.80
2023-04-15T04:20:04.310Z,81.80
2023-04-15T04:22:32.769Z,81.80
2023-04-15T04:25:02.609Z,81.80
2023-04-15T04:27:30.914Z,81.80
2023-04-15T04:29:59.193Z,81.70
2023-04-15T04:32:27.551Z,81.80
2023-04-15T04:34:57.230Z,81.80
2023-04-15T04:37:25.762Z,82.60
2023-04-15T04:39:54.048Z,81.80
2023-04-15T04:42:22.322Z,81.80
2023-04-15T04:44:50.531Z,82.60
2023-04-15T04:47:18.796Z,81.70
2023-04-15T04:49:47.113Z,81.70
2023-04-15T04:52:16.819Z,81.70
2023-04-15T04:54:45.078Z,81.80
2023-04-15T04:57:13.623Z,81.70
2023-04-15T04:59:41.860Z,81.80
2023-04-15T05:02:10.252Z,81.70
2023-04-15T05:04:38.578Z,81.70
2023-04-15T05:07:07.111Z,81.70
2023-04-15T05:09:37.211Z,82.00
2023-04-15T05:12:06.072Z,81.60
2023-04-15T05:14:35.580Z,81.60
2023-04-15T05:17:03.768Z,81.60
2023-04-15T05:19:32.025Z,81.60
2023-04-15T05:22:00.252Z,81.50
2023-04-15T05:24:28.536Z,81.50
2023-04-15T05:26:58.144Z,81.40
2023-04-15T05:29:26.395Z,81.40
2023-04-15T05:31:54.657Z,81.40
2023-04-15T05:34:23.017Z,81.30
2023-04-15T05:36:52.544Z,81.20
2023-04-15T05:39:20.795Z,81.10
2023-04-15T05:41:49.078Z,81.10
2023-04-15T05:44:18.638Z,81.10
2023-04-15T05:46:47.282Z,80.90
2023-04-15T05:49:15.659Z,81.00
2023-04-15T05:51:43.902Z,80.80
2023-04-15T05:54:12.124Z,80.70
2023-04-15T05:56:40.556Z,80.60
2023-04-15T05:59:08.771Z,80.60
2023-04-15T06:01:38.446Z,80.50
2023-04-15T06:04:07.116Z,80.50
2023-04-15T06:06:35.423Z,80.60
2023-04-15T06:09:03.877Z,80.50
2023-04-15T06:11:32.426Z,80.50
2023-04-15T06:14:00.663Z,80.60
2023-04-15T06:16:29.057Z,80.50
2023-04-15T06:18:58.796Z,80.50
2023-04-15T06:21:27.168Z,80.50
2023-04-15T06:23:56.610Z,80.50
2023-04-15T06:26:24.917Z,80.50
2023-04-15T06:28:53.156Z,80.50
2023-04-15T06:31:21.578Z,80.50
2023-04-15T06:33:50.051Z,80.40
2023-04-15T06:36:19.798Z,80.50
2023-04-15T06:38:48.364Z,81.30
2023-04-15T06:41:16.867Z,80.40
2023-04-15T06:43:45.263Z,80.30
2023-04-15T06:46:13.603Z,80.30
2023-04-15T06:48:41.851Z,80.30
2023-04-15T06:51:10.076Z,80.30
2023-04-15T06:53:41.178Z,80.30
2023-04-15T06:56:10.444Z,80.30
2023-04-15T06:58:38.818Z,80.20
2023-04-15T07:01:07.470Z,80.30
2023-04-15T07:03:36.130Z,80.20
2023-04-15T07:06:06.600Z,80.20
2023-04-15T07:08:35.120Z,80.10
2023-04-15T07:11:04.704Z,80.10
2023-04-15T07:13:33.487Z,80.10
2023-04-15T07:16:01.826Z,80.10
2023-04-15T07:18:30.084Z,80.00
2023-04-15T07:20:58.563Z,80.00
2023-04-15T07:23:26.823Z,80.00
2023-04-15T07:25:55.144Z,80.00
2023-04-15T07:28:24.813Z,79.90
2023-04-15T07:30:53.293Z,80.00
2023-04-15T07:33:21.618Z,79.80
2023-04-15T07:35:50.088Z,79.90
2023-04-15T07:38:18.373Z,79.70
2023-04-15T07:40:48.475Z,79.70
2023-04-15T07:43:16.712Z,79.70
2023-04-15T07:45:46.463Z,79.70
2023-04-15T07:48:14.930Z,79.60
2023-04-15T07:50:43.523Z,79.60
2023-04-15T07:53:11.759Z,79.60
2023-04-15T07:55:40.111Z,79.50
2023-04-15T07:58:08.380Z,79.50
2023-04-15T08:00:36.800Z,79.40
2023-04-15T08:03:06.889Z,79.40
2023-04-15T08:05:35.394Z,79.40
2023-04-15T08:08:03.719Z,79.40
2023-04-15T08:10:32.019Z,79.40
2023-04-15T08:13:01.001Z,79.40
2023-04-15T08:15:29.418Z,79.30
2023-04-15T08:17:57.705Z,79.40
2023-04-15T08:20:27.708Z,79.30
2023-04-15T08:22:56.040Z,79.30
2023-04-15T08:25:24.467Z,79.20
2023-04-15T08:27:52.849Z,79.10
2023-04-15T08:30:21.636Z,79.10
2023-04-15T08:32:51.371Z,79.10
2023-04-15T08:35:19.925Z,79.20
2023-04-15T08:37:49.683Z,79.10
2023-04-15T08:40:18.114Z,79.20
2023-04-15T08:42:52.721Z,79.10
2023-04-15T08:45:21.894Z,79.10
2023-04-15T08:47:57.024Z,79.10
2023-04-15T08:50:26.417Z,79.10
2023-04-15T08:52:57.126Z,79.10
2023-04-15T08:55:27.174Z,79.10
2023-04-15T08:57:55.472Z,79.00
2023-04-15T09:00:23.976Z,79.00
2023-04-15T09:02:52.374Z,78.90
2023-04-15T09:05:21.578Z,78.90
2023-04-15T09:07:49.965Z,78.90
2023-04-15T09:10:19.907Z,78.90
2023-04-15T09:12:48.208Z,79.00
2023-04-15T09:15:17.661Z,78.90
2023-04-15T09:17:46.622Z,78.90
2023-04-15T09:20:18.597Z,79.00
2023-04-15T09:22:49.511Z,78.90
2023-04-15T09:25:29.717Z,78.90
2023-04-15T09:28:01.129Z,78.90
2023-04-15T09:30:30.329Z,79.00
2023-04-15T09:33:00.718Z,78.90
2023-04-15T09:35:29.709Z,79.00
2023-04-15T09:38:04.589Z,79.40
2023-04-15T09:40:36.054Z,79.00
2023-04-15T09:43:05.204Z,79.00
2023-04-15T09:45:34.589Z,79.00
2023-04-15T09:48:18.741Z,79.00
2023-04-15T09:50:47.234Z,79.00
2023-04-15T09:53:19.189Z,79.00
2023-04-15T09:55:51.667Z,79.00
2023-04-15T09:58:20.723Z,79.00
2023-04-15T10:00:50.442Z,79.00
2023-04-15T10:03:22.238Z,79.00
2023-04-15T10:05:53.711Z,79.00
2023-04-15T10:08:23.932Z,79.00
2023-04-15T10:10:54.449Z,78.90
2023-04-15T10:13:24.375Z,78.90
2023-04-15T10:15:57.677Z,78.90
2023-04-15T10:18:28.793Z,78.90
2023-04-15T10:20:57.077Z,78.90
2023-04-15T10:23:25.781Z,78.90
2023-04-15T10:25:56.145Z,78.90
2023-04-15T10:28:24.592Z,78.90
2023-04-15T10:30:54.373Z,78.80
2023-04-15T10:33:24.479Z,78.80
2023-04-15T10:35:54.029Z,78.80
2023-04-15T10:38:41.821Z,78.80
2023-04-15T10:41:22.694Z,78.80
2023-04-15T10:43:53.127Z,78.80
2023-04-15T10:46:25.556Z,78.90
2023-04-15T10:48:55.194Z,79.00
2023-04-15T10:51:33.291Z,79.10
2023-04-15T10:54:02.343Z,79.00
2023-04-15T10:56:32.497Z,79.10
2023-04-15T10:59:02.059Z,79.10
2023-04-15T11:01:51.829Z,79.10
2023-04-15T11:04:54.342Z,79.10
2023-04-15T11:07:39.761Z,79.10
2023-04-15T11:11:01.879Z,79.10
2023-04-15T11:13:34.329Z,79.10
2023-04-15T11:16:03.978Z,79.10
2023-04-15T11:18:33.919Z,79.80
2023-04-15T11:21:07.226Z,78.90
2023-04-15T11:23:38.697Z,78.90
2023-04-15T11:26:09.836Z,78.90
2023-04-15T11:28:41.816Z,79.00
2023-04-15T11:31:11.965Z,78.90
2023-04-15T11:33:47.094Z,79.00
2023-04-15T11:36:15.380Z,79.10
2023-04-15T11:38:48.679Z,79.10
2023-04-15T11:41:22.216Z,79.00
2023-04-15T11:43:52.249Z,79.00
2023-04-15T11:46:22.832Z,79.00
2023-04-15T11:48:51.206Z,78.90
2023-04-15T11:51:21.863Z,78.90
2023-04-15T11:53:52.095Z,79.00
2023-04-15T11:56:22.996Z,78.90
2023-04-15T11:58:54.643Z,78.90
2023-04-15T12:01:31.620Z,79.10
2023-04-15T12:04:01.532Z,79.10
2023-04-15T12:06:35.016Z,79.00
2023-04-15T12:09:09.328Z,79.10
2023-04-15T12:11:46.085Z,79.20
2023-04-15T12:14:20.816Z,79.20
2023-04-15T12:16:51.962Z,80.10
2023-04-15T12:19:25.896Z,79.20
2023-04-15T12:22:00.211Z,79.20
2023-04-15T12:24:29.088Z,79.20
2023-04-15T12:26:58.521Z,79.20
2023-04-15T12:29:29.963Z,79.20
2023-04-15T12:32:05.175Z,79.20
2023-04-15T12:34:34.805Z,79.20
2023-04-15T12:37:04.785Z,79.20
2023-04-15T12:39:36.587Z,79.20
2023-04-15T12:42:05.464Z,79.20
2023-04-15T12:44:36.301Z,79.30
2023-04-15T12:47:05.110Z,79.30
2023-04-15T12:49:33.868Z,79.30
2023-04-15T12:52:03.520Z,79.30
2023-04-15T12:54:33.061Z,79.20
2023-04-15T12:57:06.027Z,79.20
2023-04-15T12:59:37.508Z,79.20
2023-04-15T13:02:06.207Z,79.30
2023-04-15T13:04:35.663Z,79.30
2023-04-15T13:07:04.633Z,79.20
2023-04-15T13:09:38.284Z,79.20
2023-04-15T13:12:06.945Z,79.20
2023-04-15T13:14:36.828Z,79.30
2023-04-15T13:17:10.160Z,79.10
2023-04-15T13:19:38.688Z,79.20
2023-04-15T13:22:08.430Z,79.20
2023-04-15T13:24:37.146Z,79.20
2023-04-15T13:27:05.812Z,79.20
2023-04-15T13:29:34.151Z,79.30
2023-04-15T13:32:04.440Z,79.20
2023-04-15T13:34:32.890Z,79.20
2023-04-15T13:37:06.924Z,79.20
2023-04-15T13:39:35.309Z,79.30
2023-04-15T13:42:03.884Z,79.20
2023-04-15T13:44:32.281Z,79.20
2023-04-15T13:47:00.687Z,79.20
2023-04-15T13:49:30.921Z,79.20
2023-04-15T13:51:59.120Z,79.20
2023-04-15T13:54:37.569Z,79.10
2023-04-15T13:57:06.760Z,79.20
2023-04-15T13:59:35.554Z,79.20
2023-04-15T14:02:06.331Z,79.10
2023-04-15T14:04:36.362Z,79.20
2023-04-15T14:07:05.405Z,79.20
2023-04-15T14:09:35.359Z,79.20
2023-04-15T14:12:03.909Z,79.20
2023-04-15T14:14:32.241Z,79.30
2023-04-15T14:17:00.642Z,79.20
2023-04-15T14:19:28.966Z,79.30
2023-04-15T14:21:59.124Z,79.30
2023-04-15T14:24:28.445Z,79.30
2023-04-15T14:26:56.874Z,79.40
2023-04-15T14:29:25.456Z,79.50
2023-04-15T14:32:07.127Z,79.60
2023-04-15T14:34:40.947Z,79.50
2023-04-15T14:37:10.850Z,79.60
2023-04-15T14:39:39.163Z,79.70
2023-04-15T14:42:07.415Z,79.70
2023-04-15T14:44:35.694Z,79.60
2023-04-15T14:47:04.053Z,79.70
2023-04-15T14:49:32.945Z,79.70
2023-04-15T14:52:01.246Z,79.80
2023-04-15T14:54:30.935Z,79.70
2023-04-15T14:56:59.358Z,79.80
2023-04-15T14:59:27.731Z,79.90
2023-04-15T15:01:56.154Z,79.90
2023-04-15T15:04:25.024Z,80.00
2023-04-15T15:06:53.357Z,80.00
2023-04-15T15:09:23.781Z,79.90
2023-04-15T15:11:53.725Z,80.00
2023-04-15T15:14:22.039Z,79.90
2023-04-15T15:16:51.073Z,80.00
2023-04-15T15:19:19.323Z,80.00
2023-04-15T15:21:47.706Z,80.00
2023-04-15T15:24:15.966Z,80.00
2023-04-15T15:26:44.364Z,80.10
2023-04-15T15:29:14.034Z,80.10
2023-04-15T15:31:42.440Z,80.10
2023-04-15T15:34:10.711Z,80.10
2023-04-15T15:36:39.161Z,80.10
2023-04-15T15:39:07.809Z,80.10
2023-04-15T15:41:36.627Z,80.10
2023-04-15T15:44:04.929Z,80.10
2023-04-15T15:46:34.638Z,80.10
2023-04-15T15:49:04.570Z,80.10
2023-04-15T15:51:33.093Z,80.10
2023-04-15T15:54:01.654Z,80.20
2023-04-15T15:56:30.024Z,80.20
2023-04-15T15:58:58.368Z,80.20
2023-04-15T16:01:26.740Z,80.70
2023-04-15T16:03:56.572Z,80.20
2023-04-15T16:06:24.995Z,80.20
2023-04-15T16:08:53.288Z,80.30
2023-04-15T16:11:21.573Z,80.20
2023-04-15T16:13:49.909Z,80.30
2023-04-15T16:16:18.278Z,80.30
2023-04-15T16:18:46.641Z,80.30
2023-04-15T16:21:16.933Z,80.20
2023-04-15T16:23:45.307Z,80.30
2023-04-15T16:26:13.656Z,80.30
2023-04-15T16:28:41.878Z,80.20
2023-04-15T16:31:11.722Z,80.30
2023-04-15T16:33:40.200Z,80.20
2023-04-15T16:36:08.623Z,80.20
2023-04-15T16:38:38.413Z,80.30
2023-04-15T16:41:06.800Z,80.30
2023-04-15T16:43:35.121Z,80.30
2023-04-15T16:46:03.418Z,80.20
2023-04-15T16:48:31.663Z,80.20
2023-04-15T16:50:59.953Z,80.30
2023-04-15T16:53:28.394Z,81.00
2023-04-15T16:55:58.020Z,80.20
2023-04-15T16:58:26.503Z,80.20
2023-04-15T17:00:55.004Z,80.20
2023-04-15T17:03:23.493Z,80.20
2023-04-15T17:05:51.855Z,81.10
2023-04-15T17:08:20.229Z,80.20
2023-04-15T17:10:48.654Z,80.20
2023-04-15T17:13:18.244Z,80.30
2023-04-15T17:15:46.731Z,80.30
2023-04-15T17:18:28.051Z,80.20
2023-04-15T17:21:07.904Z,80.20
2023-04-15T17:23:37.491Z,80.20
2023-04-15T17:26:05.911Z,80.20
2023-04-15T17:28:36.142Z,80.20
2023-04-15T17:31:07.974Z,80.30
2023-04-15T17:34:05.746Z,80.30
2023-04-15T17:36:57.003Z,80.30
2023-04-15T17:39:45.371Z,80.30
2023-04-15T17:42:33.656Z,80.30
2023-04-15T17:45:23.271Z,81.20
2023-04-15T17:48:11.675Z,80.40
2023-04-15T17:51:00.823Z,80.40
2023-04-15T17:53:49.021Z,80.40
2023-04-15T17:56:37.215Z,80.50
2023-04-15T17:59:25.486Z,80.50
2023-04-15T18:02:15.259Z,80.50
2023-04-15T18:05:03.845Z,80.50
2023-04-15T18:07:52.731Z,80.50
2023-04-15T18:10:41.317Z,80.50
2023-04-15T18:13:29.492Z,80.50
2023-04-15T18:16:17.865Z,80.60
2023-04-15T18:19:07.550Z,80.50
2023-04-15T18:21:35.971Z,80.60
2023-04-15T18:24:04.689Z,80.60
2023-04-15T18:26:33.260Z,80.60
2023-04-15T18:29:01.594Z,80.70
2023-04-15T18:31:29.927Z,80.70
2023-04-15T18:33:58.208Z,80.70
2023-04-15T18:36:27.936Z,80.70
2023-04-15T18:38:56.263Z,80.70
2023-04-15T18:41:25.310Z,80.80
2023-04-15T18:43:53.640Z,80.80
2023-04-15T18:46:21.992Z,80.80
2023-04-15T18:48:50.321Z,80.80
2023-04-15T18:51:18.595Z,80.70
2023-04-15T18:53:48.316Z,80.70
2023-04-15T18:56:16.616Z,80.90
2023-04-15T18:59:18.528Z,80.70
2023-04-15T19:01:33.768Z,80.70
2023-04-15T19:04:03.213Z,80.70
2023-04-15T19:06:32.090Z,80.70
2023-04-15T19:09:02.414Z,80.70
2023-04-15T19:11:31.293Z,80.80
2023-04-15T19:13:59.661Z,80.80
2023-04-15T19:16:27.998Z,80.80
2023-04-15T19:18:56.401Z,80.80
2023-04-15T19:21:24.934Z,80.80
2023-04-15T19:23:53.338Z,80.80
2023-04-15T19:26:23.058Z,80.90
2023-04-15T19:28:53.182Z,80.90
2023-04-15T19:31:21.559Z,80.80
2023-04-15T19:33:49.842Z,80.90
2023-04-15T19:36:19.210Z,80.80
2023-04-15T19:38:47.430Z,80.80
2023-04-15T19:41:16.381Z,80.80
2023-04-15T19:43:46.147Z,81.70
2023-04-15T19:46:14.709Z,80.80
2023-04-15T19:48:43.094Z,80.90
2023-04-15T19:51:11.457Z,80.80
2023-04-15T19:53:40.767Z,80.90
2023-04-15T19:56:09.103Z,81.70
2023-04-15T19:58:37.636Z,80.80
2023-04-15T20:01:07.323Z,81.70
2023-04-15T20:03:35.837Z,80.90
2023-04-15T20:06:04.280Z,80.90
2023-04-15T20:08:32.532Z,80.90
2023-04-15T20:11:01.739Z,81.00
2023-04-15T20:13:30.082Z,81.00
2023-04-15T20:15:58.534Z,81.00
2023-04-15T20:18:28.223Z,81.00
2023-04-15T20:20:56.528Z,81.00
2023-04-15T20:23:24.797Z,81.00
2023-04-15T20:25:53.153Z,81.00
2023-04-15T20:28:23.380Z,81.00
2023-04-15T20:30:53.732Z,81.10
2023-04-15T20:33:23.018Z,81.80
2023-04-15T20:35:53.503Z,81.00
2023-04-15T20:38:22.066Z,81.00
2023-04-15T20:40:50.515Z,81.10
2023-04-15T20:43:18.728Z,81.80
2023-04-15T20:45:46.964Z,81.80
2023-04-15T20:48:15.530Z,81.00
2023-04-15T20:50:43.956Z,81.80
2023-04-15T20:53:13.582Z,81.10
2023-04-15T20:55:43.524Z,81.10
2023-04-15T20:58:12.280Z,81.10
2023-04-15T21:00:40.922Z,81.10
2023-04-15T21:03:09.396Z,81.10
2023-04-15T21:05:37.774Z,81.10
2023-04-15T21:08:06.334Z,81.10
2023-04-15T21:10:36.170Z,81.20
2023-04-15T21:13:04.529Z,81.10
2023-04-15T21:15:32.948Z,81.10
2023-04-15T21:18:01.190Z,81.10
2023-04-15T21:20:29.621Z,81.10
2023-04-15T21:22:58.018Z,81.10
2023-04-15T21:25:26.286Z,81.00
2023-04-15T21:27:56.136Z,81.00
2023-04-15T21:30:25.561Z,81.00
2023-04-15T21:32:55.717Z,81.10
2023-04-15T21:35:24.085Z,81.10
2023-04-15T21:37:52.313Z,81.20
2023-04-15T21:40:20.749Z,81.10
2023-04-15T21:42:49.748Z,81.10
2023-04-15T21:45:19.424Z,81.10
2023-04-15T21:47:57.392Z,81.10
2023-04-15T21:50:37.111Z,81.10
2023-04-15T21:53:05.876Z,81.10
2023-04-15T21:55:34.157Z,81.10
2023-04-15T21:58:02.446Z,81.10
2023-04-15T22:00:32.195Z,81.10
2023-04-15T22:03:00.565Z,81.20
2023-04-15T22:05:29.032Z,81.10
2023-04-15T22:07:58.266Z,81.10
2023-04-15T22:10:27.346Z,81.10
2023-04-15T22:12:57.101Z,81.10
2023-04-15T22:15:25.355Z,81.10
2023-04-15T22:17:55.028Z,82.00
2023-04-15T22:20:23.332Z,81.20
2023-04-15T22:22:54.452Z,82.00
2023-04-15T22:25:22.847Z,81.20
2023-04-15T22:27:51.148Z,82.00
2023-04-15T22:30:19.450Z,81.10
2023-04-15T22:32:47.851Z,81.20
2023-04-15T22:35:17.629Z,81.20
2023-04-15T22:37:45.893Z,81.20
2023-04-15T22:40:14.462Z,81.10
2023-04-15T22:42:42.720Z,81.20
2023-04-15T22:45:11.521Z,81.20
2023-04-15T22:47:39.886Z,81.20
2023-04-15T22:50:09.315Z,81.10
2023-04-15T22:52:38.941Z,81.20
2023-04-15T22:55:08.684Z,81.20
2023-04-15T22:57:36.911Z,81.10
2023-04-15T23:00:05.757Z,81.20
2023-04-15T23:02:34.784Z,81.20
2023-04-15T23:05:05.036Z,81.20
2023-04-15T23:07:42.378Z,81.20
2023-04-15T23:10:11.202Z,81.30
2023-04-15T23:12:39.466Z,81.30
2023-04-15T23:15:08.969Z,81.10
2023-04-15T23:17:37.223Z,81.10
2023-04-15T23:20:06.430Z,81.30
2023-04-15T23:22:37.535Z,81.30
2023-04-15T23:25:07.808Z,81.20
2023-04-15T23:27:36.602Z,81.20
2023-04-15T23:30:05.507Z,81.20
2023-04-15T23:32:33.818Z,81.30
2023-04-15T23:35:02.144Z,81.30
2023-04-15T23:37:31.670Z,81.30
2023-04-15T23:39:59.994Z,81.30
2023-04-15T23:42:29.635Z,81.30
2023-04-15T23:44:57.963Z,81.30
2023-04-15T23:47:26.250Z,81.30
2023-04-15T23:49:54.570Z,81.30
2023-04-15T23:52:22.811Z,81.30
2023-04-15T23:54:51.068Z,81.30
2023-04-15T23:57:19.448Z,81.30
2023-04-15T23:59:49.062Z,81.30
